sensor_id;sensor_type;location;lat;lon;timestamp;temperature;humidity
51908;DHT22;39320;53.214;6.556;2023-12-14T00:02:01;5.90;99.90
51908;DHT22;39320;53.214;6.556;2023-12-14T00:04:26;5.90;99.90
51908;DHT22;39320;53.214;6.556;2023-12-14T00:06:52;6.60;99.90
51908;DHT22;39320;53.214;6.556;2023-12-14T00:09:18;6.00;99.90
51908;DHT22;39320;53.214;6.556;2023-12-14T00:11:43;6.00;99.90
51908;DHT22;39320;53.214;6.556;2023-12-14T00:14:09;6.00;99.90
51908;DHT22;39320;53.214;6.556;2023-12-14T00:16:35;6.00;99.90
51908;DHT22;39320;53.214;6.556;2023-12-14T00:19:00;6.00;99.90
51908;DHT22;39320;53.214;6.556;2023-12-14T00:21:26;5.90;99.90
51908;DHT22;39320;53.214;6.556;2023-12-14T00:23:52;5.90;99.90
51908;DHT22;39320;53.214;6.556;2023-12-14T00:26:18;6.00;99.90
51908;DHT22;39320;53.214;6.556;2023-12-14T00:28:43;6.00;99.90
51908;DHT22;39320;53.214;6.556;2023-12-14T00:31:09;6.00;99.90
51908;DHT22;39320;53.214;6.556;2023-12-14T00:33:35;6.10;99.90
51908;DHT22;39320;53.214;6.556;2023-12-14T00:36:01;6.00;99.90
51908;DHT22;39320;53.214;6.556;2023-12-14T00:38:26;6.00;99.90
51908;DHT22;39320;53.214;6.556;2023-12-14T00:40:52;5.90;99.90
51908;DHT22;39320;53.214;6.556;2023-12-14T00:43:18;6.00;99.90
51908;DHT22;39320;53.214;6.556;2023-12-14T00:45:43;6.00;99.90
51908;DHT22;39320;53.214;6.556;2023-12-14T00:48:09;6.00;99.90
51908;DHT22;39320;53.214;6.556;2023-12-14T00:50:35;5.90;99.90
51908;DHT22;39320;53.214;6.556;2023-12-14T00:53:00;5.90;99.90
51908;DHT22;39320;53.214;6.556;2023-12-14T00:55:26;5.90;99.90
51908;DHT22;39320;53.214;6.556;2023-12-14T00:57:52;5.90;99.90
51908;DHT22;39320;53.214;6.556;2023-12-14T01:00:18;6.30;99.90
51908;DHT22;39320;53.214;6.556;2023-12-14T01:02:44;6.00;99.90
51908;DHT22;39320;53.214;6.556;2023-12-14T01:05:10;6.00;99.90
51908;DHT22;39320;53.214;6.556;2023-12-14T01:07:36;6.50;99.90
51908;DHT22;39320;53.214;6.556;2023-12-14T01:10:02;6.10;99.90
51908;DHT22;39320;53.214;6.556;2023-12-14T01:12:28;6.00;99.90
51908;DHT22;39320;53.214;6.556;2023-12-14T01:14:53;6.00;99.90
51908;DHT22;39320;53.214;6.556;2023-12-14T01:17:19;6.00;99.90
51908;DHT22;39320;53.214;6.556;2023-12-14T01:19:45;5.90;99.90
51908;DHT22;39320;53.214;6.556;2023-12-14T01:22:10;5.80;99.90
51908;DHT22;39320;53.214;6.556;2023-12-14T01:24:36;5.80;99.90
51908;DHT22;39320;53.214;6.556;2023-12-14T01:27:02;5.80;99.90
51908;DHT22;39320;53.214;6.556;2023-12-14T01:29:28;5.80;99.90
51908;DHT22;39320;53.214;6.556;2023-12-14T01:31:53;5.80;99.90
51908;DHT22;39320;53.214;6.556;2023-12-14T01:34:19;5.80;99.90
51908;DHT22;39320;53.214;6.556;2023-12-14T01:36:45;5.80;99.90
51908;DHT22;39320;53.214;6.556;2023-12-14T01:39:11;5.80;99.90
51908;DHT22;39320;53.214;6.556;2023-12-14T01:41:36;5.70;99.90
51908;DHT22;39320;53.214;6.556;2023-12-14T01:44:02;5.70;99.90
51908;DHT22;39320;53.214;6.556;2023-12-14T01:46:29;5.70;99.90
51908;DHT22;39320;53.214;6.556;2023-12-14T01:48:55;5.70;99.90
51908;DHT22;39320;53.214;6.556;2023-12-14T01:51:21;5.70;99.90
51908;DHT22;39320;53.214;6.556;2023-12-14T01:53:47;5.70;99.90
51908;DHT22;39320;53.214;6.556;2023-12-14T01:56:13;5.70;99.90
51908;DHT22;39320;53.214;6.556;2023-12-14T01:58:38;5.70;99.90
51908;DHT22;39320;53.214;6.556;2023-12-14T02:03:50;5.70;99.90
51908;DHT22;39320;53.214;6.556;2023-12-14T02:06:16;5.70;99.90
51908;DHT22;39320;53.214;6.556;2023-12-14T02:08:42;5.70;99.90
51908;DHT22;39320;53.214;6.556;2023-12-14T02:11:08;5.70;99.90
51908;DHT22;39320;53.214;6.556;2023-12-14T02:13:34;5.70;99.90
51908;DHT22;39320;53.214;6.556;2023-12-14T02:15:59;5.80;99.90
51908;DHT22;39320;53.214;6.556;2023-12-14T02:18:25;5.70;99.90
51908;DHT22;39320;53.214;6.556;2023-12-14T02:20:52;5.70;99.90
51908;DHT22;39320;53.214;6.556;2023-12-14T02:23:17;5.70;99.90
51908;DHT22;39320;53.214;6.556;2023-12-14T02:25:43;5.70;99.90
51908;DHT22;39320;53.214;6.556;2023-12-14T02:28:09;5.70;99.90
51908;DHT22;39320;53.214;6.556;2023-12-14T02:30:34;5.70;99.90
51908;DHT22;39320;53.214;6.556;2023-12-14T02:33:00;5.90;99.90
51908;DHT22;39320;53.214;6.556;2023-12-14T02:35:26;5.70;99.90
51908;DHT22;39320;53.214;6.556;2023-12-14T02:37:51;5.70;99.90
51908;DHT22;39320;53.214;6.556;2023-12-14T02:40:17;5.70;99.90
51908;DHT22;39320;53.214;6.556;2023-12-14T02:42:43;5.70;99.90
51908;DHT22;39320;53.214;6.556;2023-12-14T02:45:09;5.70;99.90
51908;DHT22;39320;53.214;6.556;2023-12-14T02:47:35;5.80;99.90
51908;DHT22;39320;53.214;6.556;2023-12-14T02:50:00;5.80;99.90
51908;DHT22;39320;53.214;6.556;2023-12-14T02:52:26;5.80;99.90
51908;DHT22;39320;53.214;6.556;2023-12-14T02:54:52;6.50;99.90
51908;DHT22;39320;53.214;6.556;2023-12-14T02:57:18;5.70;99.90
51908;DHT22;39320;53.214;6.556;2023-12-14T02:59:44;5.70;99.90
51908;DHT22;39320;53.214;6.556;2023-12-14T03:02:09;6.50;99.90
51908;DHT22;39320;53.214;6.556;2023-12-14T03:04:38;5.70;99.90
51908;DHT22;39320;53.214;6.556;2023-12-14T03:07:06;6.00;99.90
51908;DHT22;39320;53.214;6.556;2023-12-14T03:09:33;5.70;99.90
51908;DHT22;39320;53.214;6.556;2023-12-14T03:12:00;5.70;99.90
51908;DHT22;39320;53.214;6.556;2023-12-14T03:14:26;5.80;99.90
51908;DHT22;39320;53.214;6.556;2023-12-14T03:16:51;5.80;99.90
51908;DHT22;39320;53.214;6.556;2023-12-14T03:19:18;5.80;99.90
51908;DHT22;39320;53.214;6.556;2023-12-14T03:21:43;5.70;99.90
51908;DHT22;39320;53.214;6.556;2023-12-14T03:24:09;5.80;99.90
51908;DHT22;39320;53.214;6.556;2023-12-14T03:26:35;5.80;99.90
51908;DHT22;39320;53.214;6.556;2023-12-14T03:29:01;5.80;99.90
51908;DHT22;39320;53.214;6.556;2023-12-14T03:31:27;6.00;99.90
51908;DHT22;39320;53.214;6.556;2023-12-14T03:33:53;5.70;99.90
51908;DHT22;39320;53.214;6.556;2023-12-14T03:36:18;5.80;99.90
51908;DHT22;39320;53.214;6.556;2023-12-14T03:38:44;6.20;99.90
51908;DHT22;39320;53.214;6.556;2023-12-14T03:41:10;5.70;99.90
51908;DHT22;39320;53.214;6.556;2023-12-14T03:43:36;5.70;99.90
51908;DHT22;39320;53.214;6.556;2023-12-14T03:46:01;5.70;99.90
51908;DHT22;39320;53.214;6.556;2023-12-14T03:48:27;5.60;99.90
51908;DHT22;39320;53.214;6.556;2023-12-14T03:50:53;5.70;99.90
51908;DHT22;39320;53.214;6.556;2023-12-14T03:53:18;5.70;99.90
51908;DHT22;39320;53.214;6.556;2023-12-14T03:55:46;5.70;99.90
51908;DHT22;39320;53.214;6.556;2023-12-14T03:58:12;5.60;99.90
51908;DHT22;39320;53.214;6.556;2023-12-14T04:00:37;5.60;99.90
51908;DHT22;39320;53.214;6.556;2023-12-14T04:03:03;5.60;99.90
51908;DHT22;39320;53.214;6.556;2023-12-14T04:05:29;5.60;99.90
51908;DHT22;39320;53.214;6.556;2023-12-14T04:07:54;5.70;99.90
51908;DHT22;39320;53.214;6.556;2023-12-14T04:10:20;5.70;99.90
51908;DHT22;39320;53.214;6.556;2023-12-14T04:12:46;5.60;99.90
51908;DHT22;39320;53.214;6.556;2023-12-14T04:15:12;5.60;99.90
51908;DHT22;39320;53.214;6.556;2023-12-14T04:17:37;5.60;99.90
51908;DHT22;39320;53.214;6.556;2023-12-14T04:20:04;5.60;99.90
51908;DHT22;39320;53.214;6.556;2023-12-14T04:22:31;5.70;99.90
51908;DHT22;39320;53.214;6.556;2023-12-14T04:24:57;5.70;99.90
51908;DHT22;39320;53.214;6.556;2023-12-14T04:27:23;5.60;99.90
51908;DHT22;39320;53.214;6.556;2023-12-14T04:29:52;5.60;99.90
51908;DHT22;39320;53.214;6.556;2023-12-14T04:32:18;5.70;99.90
51908;DHT22;39320;53.214;6.556;2023-12-14T04:34:44;5.70;99.90
51908;DHT22;39320;53.214;6.556;2023-12-14T04:37:09;6.00;99.90
51908;DHT22;39320;53.214;6.556;2023-12-14T04:39:35;5.60;99.90
51908;DHT22;39320;53.214;6.556;2023-12-14T04:42:01;5.70;99.90
51908;DHT22;39320;53.214;6.556;2023-12-14T04:44:27;5.60;99.90
51908;DHT22;39320;53.214;6.556;2023-12-14T04:46:52;5.60;99.90
51908;DHT22;39320;53.214;6.556;2023-12-14T04:49:18;5.60;99.90
51908;DHT22;39320;53.214;6.556;2023-12-14T04:51:45;5.60;99.90
51908;DHT22;39320;53.214;6.556;2023-12-14T04:54:10;5.60;99.90
51908;DHT22;39320;53.214;6.556;2023-12-14T04:56:36;5.60;99.90
51908;DHT22;39320;53.214;6.556;2023-12-14T04:59:02;5.60;99.90
51908;DHT22;39320;53.214;6.556;2023-12-14T05:01:28;5.60;99.90
51908;DHT22;39320;53.214;6.556;2023-12-14T05:03:53;5.60;99.90
51908;DHT22;39320;53.214;6.556;2023-12-14T05:06:20;5.60;99.90
51908;DHT22;39320;53.214;6.556;2023-12-14T05:08:46;5.50;99.90
51908;DHT22;39320;53.214;6.556;2023-12-14T05:11:15;5.50;99.90
51908;DHT22;39320;53.214;6.556;2023-12-14T05:13:41;5.90;99.90
51908;DHT22;39320;53.214;6.556;2023-12-14T05:16:12;5.50;99.90
51908;DHT22;39320;53.214;6.556;2023-12-14T05:18:37;5.50;99.90
51908;DHT22;39320;53.214;6.556;2023-12-14T05:21:03;5.50;99.90
51908;DHT22;39320;53.214;6.556;2023-12-14T05:23:29;5.50;99.90
51908;DHT22;39320;53.214;6.556;2023-12-14T05:25:55;5.50;99.90
51908;DHT22;39320;53.214;6.556;2023-12-14T05:28:21;5.50;99.90
51908;DHT22;39320;53.214;6.556;2023-12-14T05:30:46;5.60;99.90
51908;DHT22;39320;53.214;6.556;2023-12-14T05:33:12;5.60;99.90
51908;DHT22;39320;53.214;6.556;2023-12-14T05:35:37;5.70;99.90
51908;DHT22;39320;53.214;6.556;2023-12-14T05:38:03;5.60;99.90
51908;DHT22;39320;53.214;6.556;2023-12-14T05:40:29;5.60;99.90
51908;DHT22;39320;53.214;6.556;2023-12-14T05:42:54;5.60;99.90
51908;DHT22;39320;53.214;6.556;2023-12-14T05:45:20;5.60;99.90
51908;DHT22;39320;53.214;6.556;2023-12-14T05:47:46;5.60;99.90
51908;DHT22;39320;53.214;6.556;2023-12-14T05:50:12;5.60;99.90
51908;DHT22;39320;53.214;6.556;2023-12-14T05:52:38;5.60;99.90
51908;DHT22;39320;53.214;6.556;2023-12-14T05:55:08;5.60;99.90
51908;DHT22;39320;53.214;6.556;2023-12-14T05:57:35;5.60;99.90
51908;DHT22;39320;53.214;6.556;2023-12-14T06:00:02;5.60;99.90
51908;DHT22;39320;53.214;6.556;2023-12-14T06:02:29;5.60;99.90
51908;DHT22;39320;53.214;6.556;2023-12-14T06:04:54;5.60;99.90
51908;DHT22;39320;53.214;6.556;2023-12-14T06:07:22;5.60;99.90
51908;DHT22;39320;53.214;6.556;2023-12-14T06:09:48;5.60;99.90
51908;DHT22;39320;53.214;6.556;2023-12-14T06:12:13;5.60;99.90
51908;DHT22;39320;53.214;6.556;2023-12-14T06:14:39;5.60;99.90
51908;DHT22;39320;53.214;6.556;2023-12-14T06:17:05;5.60;99.90
51908;DHT22;39320;53.214;6.556;2023-12-14T06:19:30;5.60;99.90
51908;DHT22;39320;53.214;6.556;2023-12-14T06:21:56;5.60;99.90
51908;DHT22;39320;53.214;6.556;2023-12-14T06:24:22;5.60;99.90
51908;DHT22;39320;53.214;6.556;2023-12-14T06:26:48;5.60;99.90
51908;DHT22;39320;53.214;6.556;2023-12-14T06:29:13;5.60;99.90
51908;DHT22;39320;53.214;6.556;2023-12-14T06:31:39;5.60;99.90
51908;DHT22;39320;53.214;6.556;2023-12-14T06:34:08;5.60;99.90
51908;DHT22;39320;53.214;6.556;2023-12-14T06:36:34;5.80;99.90
51908;DHT22;39320;53.214;6.556;2023-12-14T06:39:01;5.80;99.90
51908;DHT22;39320;53.214;6.556;2023-12-14T06:41:27;5.70;99.90
51908;DHT22;39320;53.214;6.556;2023-12-14T06:43:54;5.70;99.90
51908;DHT22;39320;53.214;6.556;2023-12-14T06:46:20;5.60;99.90
51908;DHT22;39320;53.214;6.556;2023-12-14T06:48:46;5.70;99.90
51908;DHT22;39320;53.214;6.556;2023-12-14T06:51:12;5.70;99.90
51908;DHT22;39320;53.214;6.556;2023-12-14T06:53:42;5.70;99.90
51908;DHT22;39320;53.214;6.556;2023-12-14T06:56:09;5.70;99.90
51908;DHT22;39320;53.214;6.556;2023-12-14T06:58:38;5.70;99.90
51908;DHT22;39320;53.214;6.556;2023-12-14T07:01:03;6.20;99.90
51908;DHT22;39320;53.214;6.556;2023-12-14T07:03:30;5.60;99.90
51908;DHT22;39320;53.214;6.556;2023-12-14T07:05:56;5.60;99.90
51908;DHT22;39320;53.214;6.556;2023-12-14T07:08:21;5.90;99.90
51908;DHT22;39320;53.214;6.556;2023-12-14T07:10:47;5.60;99.90
51908;DHT22;39320;53.214;6.556;2023-12-14T07:13:13;5.70;99.90
51908;DHT22;39320;53.214;6.556;2023-12-14T07:15:38;6.10;99.90
51908;DHT22;39320;53.214;6.556;2023-12-14T07:18:04;5.70;99.90
51908;DHT22;39320;53.214;6.556;2023-12-14T07:20:30;5.70;99.90
51908;DHT22;39320;53.214;6.556;2023-12-14T07:22:55;5.60;99.90
51908;DHT22;39320;53.214;6.556;2023-12-14T07:25:21;5.60;99.90
51908;DHT22;39320;53.214;6.556;2023-12-14T07:27:47;5.60;99.90
51908;DHT22;39320;53.214;6.556;2023-12-14T07:30:13;5.60;99.90
51908;DHT22;39320;53.214;6.556;2023-12-14T07:32:39;5.60;99.90
51908;DHT22;39320;53.214;6.556;2023-12-14T07:35:05;5.60;99.90
51908;DHT22;39320;53.214;6.556;2023-12-14T07:37:31;5.60;99.90
51908;DHT22;39320;53.214;6.556;2023-12-14T07:39:57;5.60;99.90
51908;DHT22;39320;53.214;6.556;2023-12-14T07:42:25;5.60;99.90
51908;DHT22;39320;53.214;6.556;2023-12-14T07:44:51;5.60;99.90
51908;DHT22;39320;53.214;6.556;2023-12-14T07:47:17;5.60;99.90
51908;DHT22;39320;53.214;6.556;2023-12-14T07:49:43;5.60;99.90
51908;DHT22;39320;53.214;6.556;2023-12-14T07:52:08;6.10;99.90
51908;DHT22;39320;53.214;6.556;2023-12-14T07:54:35;5.60;99.90
51908;DHT22;39320;53.214;6.556;2023-12-14T07:57:01;5.60;99.90
51908;DHT22;39320;53.214;6.556;2023-12-14T07:59:27;5.60;99.90
51908;DHT22;39320;53.214;6.556;2023-12-14T08:01:52;5.60;99.90
51908;DHT22;39320;53.214;6.556;2023-12-14T08:04:18;5.60;99.90
51908;DHT22;39320;53.214;6.556;2023-12-14T08:06:44;5.70;99.90
51908;DHT22;39320;53.214;6.556;2023-12-14T08:09:09;5.80;99.90
51908;DHT22;39320;53.214;6.556;2023-12-14T08:11:35;5.80;99.90
51908;DHT22;39320;53.214;6.556;2023-12-14T08:14:01;5.80;99.90
51908;DHT22;39320;53.214;6.556;2023-12-14T08:16:28;5.80;99.90
51908;DHT22;39320;53.214;6.556;2023-12-14T08:18:54;5.80;99.90
51908;DHT22;39320;53.214;6.556;2023-12-14T08:21:20;6.10;99.90
51908;DHT22;39320;53.214;6.556;2023-12-14T08:23:45;5.70;99.90
51908;DHT22;39320;53.214;6.556;2023-12-14T08:26:11;5.70;99.90
51908;DHT22;39320;53.214;6.556;2023-12-14T08:28:39;5.70;99.90
51908;DHT22;39320;53.214;6.556;2023-12-14T08:31:05;5.90;99.90
51908;DHT22;39320;53.214;6.556;2023-12-14T08:33:31;5.80;99.90
51908;DHT22;39320;53.214;6.556;2023-12-14T08:35:57;5.90;99.90
51908;DHT22;39320;53.214;6.556;2023-12-14T08:38:23;5.90;99.90
51908;DHT22;39320;53.214;6.556;2023-12-14T08:40:50;5.90;99.90
51908;DHT22;39320;53.214;6.556;2023-12-14T08:43:16;5.90;99.90
51908;DHT22;39320;53.214;6.556;2023-12-14T08:45:42;5.90;99.90
51908;DHT22;39320;53.214;6.556;2023-12-14T08:48:08;5.90;99.90
51908;DHT22;39320;53.214;6.556;2023-12-14T08:50:34;5.90;99.90
51908;DHT22;39320;53.214;6.556;2023-12-14T08:52:59;6.20;99.90
51908;DHT22;39320;53.214;6.556;2023-12-14T08:55:26;5.80;99.90
51908;DHT22;39320;53.214;6.556;2023-12-14T08:57:52;6.00;99.90
51908;DHT22;39320;53.214;6.556;2023-12-14T09:00:18;6.00;99.90
51908;DHT22;39320;53.214;6.556;2023-12-14T09:02:45;6.00;99.90
51908;DHT22;39320;53.214;6.556;2023-12-14T09:05:15;6.00;99.90
51908;DHT22;39320;53.214;6.556;2023-12-14T09:07:42;6.00;99.90
51908;DHT22;39320;53.214;6.556;2023-12-14T09:10:09;6.00;99.90
51908;DHT22;39320;53.214;6.556;2023-12-14T09:12:34;6.00;99.90
51908;DHT22;39320;53.214;6.556;2023-12-14T09:15:01;6.10;99.90
51908;DHT22;39320;53.214;6.556;2023-12-14T09:17:27;6.10;99.90
51908;DHT22;39320;53.214;6.556;2023-12-14T09:19:59;6.10;99.90
51908;DHT22;39320;53.214;6.556;2023-12-14T09:22:25;6.10;99.90
51908;DHT22;39320;53.214;6.556;2023-12-14T09:24:51;6.10;99.90
51908;DHT22;39320;53.214;6.556;2023-12-14T09:27:17;7.00;99.90
51908;DHT22;39320;53.214;6.556;2023-12-14T09:29:42;6.10;99.90
51908;DHT22;39320;53.214;6.556;2023-12-14T09:32:09;6.10;99.90
51908;DHT22;39320;53.214;6.556;2023-12-14T09:34:34;6.10;99.90
51908;DHT22;39320;53.214;6.556;2023-12-14T09:37:00;6.20;99.90
51908;DHT22;39320;53.214;6.556;2023-12-14T09:39:26;6.20;99.90
51908;DHT22;39320;53.214;6.556;2023-12-14T09:42:04;6.20;99.90
51908;DHT22;39320;53.214;6.556;2023-12-14T09:44:31;6.20;99.90
51908;DHT22;39320;53.214;6.556;2023-12-14T09:47:01;6.20;99.90
51908;DHT22;39320;53.214;6.556;2023-12-14T09:49:29;6.20;99.90
51908;DHT22;39320;53.214;6.556;2023-12-14T09:51:56;6.20;99.90
51908;DHT22;39320;53.214;6.556;2023-12-14T09:54:23;6.20;99.90
51908;DHT22;39320;53.214;6.556;2023-12-14T09:56:49;6.20;99.90
51908;DHT22;39320;53.214;6.556;2023-12-14T09:59:15;6.30;99.90
51908;DHT22;39320;53.214;6.556;2023-12-14T10:01:42;6.40;99.90
51908;DHT22;39320;53.214;6.556;2023-12-14T10:04:12;6.30;99.90
51908;DHT22;39320;53.214;6.556;2023-12-14T10:06:40;6.30;99.90
51908;DHT22;39320;53.214;6.556;2023-12-14T10:09:06;6.30;99.90
51908;DHT22;39320;53.214;6.556;2023-12-14T10:11:36;6.30;99.90
51908;DHT22;39320;53.214;6.556;2023-12-14T10:14:02;6.30;99.90
51908;DHT22;39320;53.214;6.556;2023-12-14T10:16:33;6.20;99.90
51908;DHT22;39320;53.214;6.556;2023-12-14T10:18:59;6.30;99.90
51908;DHT22;39320;53.214;6.556;2023-12-14T10:21:28;6.20;99.90
51908;DHT22;39320;53.214;6.556;2023-12-14T10:23:57;6.20;99.90
51908;DHT22;39320;53.214;6.556;2023-12-14T10:26:24;6.30;99.90
51908;DHT22;39320;53.214;6.556;2023-12-14T10:28:51;6.20;99.90
51908;DHT22;39320;53.214;6.556;2023-12-14T10:31:18;6.20;99.90
51908;DHT22;39320;53.214;6.556;2023-12-14T10:33:45;6.30;99.90
51908;DHT22;39320;53.214;6.556;2023-12-14T10:36:13;6.20;99.90
51908;DHT22;39320;53.214;6.556;2023-12-14T10:38:43;6.30;99.90
51908;DHT22;39320;53.214;6.556;2023-12-14T10:41:12;6.30;99.90
51908;DHT22;39320;53.214;6.556;2023-12-14T10:43:39;6.30;99.90
51908;DHT22;39320;53.214;6.556;2023-12-14T10:46:07;6.60;99.90
51908;DHT22;39320;53.214;6.556;2023-12-14T10:48:35;6.30;99.90
51908;DHT22;39320;53.214;6.556;2023-12-14T10:51:03;6.30;99.90
51908;DHT22;39320;53.214;6.556;2023-12-14T10:53:32;6.30;99.90
51908;DHT22;39320;53.214;6.556;2023-12-14T10:56:00;6.30;99.90
51908;DHT22;39320;53.214;6.556;2023-12-14T10:58:47;6.30;99.90
51908;DHT22;39320;53.214;6.556;2023-12-14T11:01:18;6.40;99.90
51908;DHT22;39320;53.214;6.556;2023-12-14T11:03:45;6.30;99.90
51908;DHT22;39320;53.214;6.556;2023-12-14T11:06:32;6.40;99.90
51908;DHT22;39320;53.214;6.556;2023-12-14T11:09:01;6.30;99.90
51908;DHT22;39320;53.214;6.556;2023-12-14T11:11:41;6.40;99.90
51908;DHT22;39320;53.214;6.556;2023-12-14T11:14:11;6.30;99.90
51908;DHT22;39320;53.214;6.556;2023-12-14T11:16:38;6.40;99.90
51908;DHT22;39320;53.214;6.556;2023-12-14T11:24:21;6.40;99.90
51908;DHT22;39320;53.214;6.556;2023-12-14T11:26:50;6.40;99.90
51908;DHT22;39320;53.214;6.556;2023-12-14T11:29:22;6.40;99.90
51908;DHT22;39320;53.214;6.556;2023-12-14T11:31:48;6.40;99.90
51908;DHT22;39320;53.214;6.556;2023-12-14T11:34:20;6.40;99.90
51908;DHT22;39320;53.214;6.556;2023-12-14T11:36:48;6.40;99.90
51908;DHT22;39320;53.214;6.556;2023-12-14T11:39:14;6.40;99.90
51908;DHT22;39320;53.214;6.556;2023-12-14T11:41:40;6.40;99.90
51908;DHT22;39320;53.214;6.556;2023-12-14T11:44:06;6.50;99.90
51908;DHT22;39320;53.214;6.556;2023-12-14T11:46:32;6.40;99.90
51908;DHT22;39320;53.214;6.556;2023-12-14T11:48:58;6.40;99.90
51908;DHT22;39320;53.214;6.556;2023-12-14T11:51:24;6.40;99.90
51908;DHT22;39320;53.214;6.556;2023-12-14T11:53:55;6.50;99.90
51908;DHT22;39320;53.214;6.556;2023-12-14T11:56:21;6.50;99.90
51908;DHT22;39320;53.214;6.556;2023-12-14T11:58:49;6.60;99.90
51908;DHT22;39320;53.214;6.556;2023-12-14T12:01:19;6.50;99.90
51908;DHT22;39320;53.214;6.556;2023-12-14T12:03:46;6.40;99.90
51908;DHT22;39320;53.214;6.556;2023-12-14T12:06:26;6.50;99.90
51908;DHT22;39320;53.214;6.556;2023-12-14T12:08:55;6.50;99.90
51908;DHT22;39320;53.214;6.556;2023-12-14T12:11:22;6.60;99.90
51908;DHT22;39320;53.214;6.556;2023-12-14T12:14:05;6.60;99.90
51908;DHT22;39320;53.214;6.556;2023-12-14T12:16:31;6.50;99.90
51908;DHT22;39320;53.214;6.556;2023-12-14T12:18:57;6.50;99.90
51908;DHT22;39320;53.214;6.556;2023-12-14T12:21:23;6.60;99.90
51908;DHT22;39320;53.214;6.556;2023-12-14T12:23:48;6.60;99.90
51908;DHT22;39320;53.214;6.556;2023-12-14T12:26:14;6.60;99.90
51908;DHT22;39320;53.214;6.556;2023-12-14T12:28:40;6.60;99.90
51908;DHT22;39320;53.214;6.556;2023-12-14T12:31:06;6.60;99.90
51908;DHT22;39320;53.214;6.556;2023-12-14T12:33:32;6.60;99.90
51908;DHT22;39320;53.214;6.556;2023-12-14T12:36:03;6.60;99.90
51908;DHT22;39320;53.214;6.556;2023-12-14T12:38:28;6.50;99.90
51908;DHT22;39320;53.214;6.556;2023-12-14T12:40:54;6.60;99.90
51908;DHT22;39320;53.214;6.556;2023-12-14T12:43:21;6.50;99.90
51908;DHT22;39320;53.214;6.556;2023-12-14T12:45:46;6.50;99.90
51908;DHT22;39320;53.214;6.556;2023-12-14T12:48:12;6.60;99.90
51908;DHT22;39320;53.214;6.556;2023-12-14T12:50:38;6.40;99.90
51908;DHT22;39320;53.214;6.556;2023-12-14T12:53:04;6.50;99.90
51908;DHT22;39320;53.214;6.556;2023-12-14T12:55:30;6.50;99.90
51908;DHT22;39320;53.214;6.556;2023-12-14T12:57:56;6.40;99.90
51908;DHT22;39320;53.214;6.556;2023-12-14T13:00:23;6.40;99.90
51908;DHT22;39320;53.214;6.556;2023-12-14T13:02:48;6.50;99.90
51908;DHT22;39320;53.214;6.556;2023-12-14T13:05:14;6.50;99.90
51908;DHT22;39320;53.214;6.556;2023-12-14T13:07:44;6.50;99.90
51908;DHT22;39320;53.214;6.556;2023-12-14T13:10:10;6.50;99.90
51908;DHT22;39320;53.214;6.556;2023-12-14T13:12:36;6.50;99.90
51908;DHT22;39320;53.214;6.556;2023-12-14T13:15:02;6.50;99.90
51908;DHT22;39320;53.214;6.556;2023-12-14T13:17:28;6.40;99.90
51908;DHT22;39320;53.214;6.556;2023-12-14T13:19:53;6.50;99.90
51908;DHT22;39320;53.214;6.556;2023-12-14T13:22:20;6.50;99.90
51908;DHT22;39320;53.214;6.556;2023-12-14T13:24:46;6.40;99.90
51908;DHT22;39320;53.214;6.556;2023-12-14T13:27:12;6.50;99.90
51908;DHT22;39320;53.214;6.556;2023-12-14T13:29:38;6.50;99.90
51908;DHT22;39320;53.214;6.556;2023-12-14T13:32:03;6.90;99.90
51908;DHT22;39320;53.214;6.556;2023-12-14T13:34:29;6.40;99.90
51908;DHT22;39320;53.214;6.556;2023-12-14T13:36:56;6.40;99.90
51908;DHT22;39320;53.214;6.556;2023-12-14T13:39:21;6.50;99.90
51908;DHT22;39320;53.214;6.556;2023-12-14T13:41:48;6.40;99.90
51908;DHT22;39320;53.214;6.556;2023-12-14T13:44:13;6.40;99.90
51908;DHT22;39320;53.214;6.556;2023-12-14T13:46:39;6.50;99.90
51908;DHT22;39320;53.214;6.556;2023-12-14T13:49:05;6.40;99.90
51908;DHT22;39320;53.214;6.556;2023-12-14T13:51:30;6.50;99.90
51908;DHT22;39320;53.214;6.556;2023-12-14T13:53:56;6.50;99.90
51908;DHT22;39320;53.214;6.556;2023-12-14T13:56:23;6.50;99.90
51908;DHT22;39320;53.214;6.556;2023-12-14T13:58:49;6.50;99.90
51908;DHT22;39320;53.214;6.556;2023-12-14T14:01:15;6.50;99.90
51908;DHT22;39320;53.214;6.556;2023-12-14T14:03:41;6.50;99.90
51908;DHT22;39320;53.214;6.556;2023-12-14T14:06:07;6.50;99.90
51908;DHT22;39320;53.214;6.556;2023-12-14T14:08:33;6.50;99.90
51908;DHT22;39320;53.214;6.556;2023-12-14T14:11:01;6.50;99.90
51908;DHT22;39320;53.214;6.556;2023-12-14T14:13:27;6.50;99.90
51908;DHT22;39320;53.214;6.556;2023-12-14T14:15:53;6.50;99.90
51908;DHT22;39320;53.214;6.556;2023-12-14T14:18:19;6.50;99.90
51908;DHT22;39320;53.214;6.556;2023-12-14T14:20:45;6.40;99.90
51908;DHT22;39320;53.214;6.556;2023-12-14T14:23:11;6.40;99.90
51908;DHT22;39320;53.214;6.556;2023-12-14T14:25:37;6.40;99.90
51908;DHT22;39320;53.214;6.556;2023-12-14T14:28:03;6.40;99.90
51908;DHT22;39320;53.214;6.556;2023-12-14T14:30:29;6.40;99.90
51908;DHT22;39320;53.214;6.556;2023-12-14T14:32:55;6.40;99.90
51908;DHT22;39320;53.214;6.556;2023-12-14T14:35:22;6.40;99.90
51908;DHT22;39320;53.214;6.556;2023-12-14T14:37:50;6.40;99.90
51908;DHT22;39320;53.214;6.556;2023-12-14T14:40:16;6.40;99.90
51908;DHT22;39320;53.214;6.556;2023-12-14T14:42:42;6.40;99.90
51908;DHT22;39320;53.214;6.556;2023-12-14T14:45:12;6.40;99.90
51908;DHT22;39320;53.214;6.556;2023-12-14T14:47:39;6.30;99.90
51908;DHT22;39320;53.214;6.556;2023-12-14T14:50:06;6.40;99.90
51908;DHT22;39320;53.214;6.556;2023-12-14T14:52:33;6.40;99.90
51908;DHT22;39320;53.214;6.556;2023-12-14T14:54:59;6.40;99.90
51908;DHT22;39320;53.214;6.556;2023-12-14T14:57:25;6.50;99.90
51908;DHT22;39320;53.214;6.556;2023-12-14T14:59:51;6.40;99.90
51908;DHT22;39320;53.214;6.556;2023-12-14T15:02:17;6.40;99.90
51908;DHT22;39320;53.214;6.556;2023-12-14T15:04:43;6.40;99.90
51908;DHT22;39320;53.214;6.556;2023-12-14T15:07:08;6.40;99.90
51908;DHT22;39320;53.214;6.556;2023-12-14T15:09:34;6.40;99.90
51908;DHT22;39320;53.214;6.556;2023-12-14T15:12:00;6.40;99.90
51908;DHT22;39320;53.214;6.556;2023-12-14T15:14:26;6.50;99.90
51908;DHT22;39320;53.214;6.556;2023-12-14T15:16:55;6.40;99.90
51908;DHT22;39320;53.214;6.556;2023-12-14T15:19:21;6.40;99.90
51908;DHT22;39320;53.214;6.556;2023-12-14T15:21:47;6.50;99.90
51908;DHT22;39320;53.214;6.556;2023-12-14T15:24:13;6.70;99.90
51908;DHT22;39320;53.214;6.556;2023-12-14T15:26:40;6.40;99.90
51908;DHT22;39320;53.214;6.556;2023-12-14T15:29:06;6.40;99.90
51908;DHT22;39320;53.214;6.556;2023-12-14T15:31:32;6.30;99.90
51908;DHT22;39320;53.214;6.556;2023-12-14T15:33:58;6.30;99.90
51908;DHT22;39320;53.214;6.556;2023-12-14T15:36:24;6.30;99.90
51908;DHT22;39320;53.214;6.556;2023-12-14T15:38:50;6.30;99.90
51908;DHT22;39320;53.214;6.556;2023-12-14T15:41:16;6.30;99.90
51908;DHT22;39320;53.214;6.556;2023-12-14T15:43:42;6.30;99.90
51908;DHT22;39320;53.214;6.556;2023-12-14T15:46:08;6.30;99.90
51908;DHT22;39320;53.214;6.556;2023-12-14T15:48:34;6.30;99.90